Time;durP1;ratioP1;P1;durP2;ratioP2;P2;SDS_P1;SDS_P2;PMS_P1;PMS_P2;Temp;Humidity;BMP_temperature;BMP_pressure;BME280_temperature;BME280_humidity;BME280_pressure;Samples;Min_cycle;Max_cycle;Signal;HPM_P1;HPM_P2
2021/11/22 00:00:42;;;;;;;33.05;26.23;;;;;;;5.02;100.00;100378.41;1687022;85;21131;-79
2021/11/22 00:03:12;;;;;;;35.25;26.50;;;;;;;5.01;100.00;100392.22;1685605;83;21087;-81
2021/11/22 00:05:41;;;;;;;34.43;25.32;;;;;;;4.96;100.00;100385.20;1694470;84;21558;-79
2021/11/22 00:08:08;;;;;;;35.17;26.25;;;;;;;4.91;100.00;100387.22;1693957;84;21050;-80
2021/11/22 00:10:37;;;;;;;35.30;26.60;;;;;;;4.92;100.00;100379.85;1693841;83;21625;-79
2021/11/22 00:13:05;;;;;;;34.83;25.97;;;;;;;4.93;100.00;100369.06;1694034;84;21481;-80
2021/11/22 00:15:32;;;;;;;30.72;25.80;;;;;;;4.94;100.00;100370.25;1693724;84;21105;-79
2021/11/22 00:18:00;;;;;;;33.90;26.05;;;;;;;4.97;100.00;100366.23;1694055;83;21481;-79
2021/11/22 00:20:27;;;;;;;36.35;27.35;;;;;;;5.03;100.00;100370.22;1673980;84;21106;-80
2021/11/22 00:22:57;;;;;;;34.23;27.52;;;;;;;5.07;100.00;100373.46;1694126;84;21082;-80
2021/11/22 00:25:24;;;;;;;39.08;29.18;;;;;;;5.11;100.00;100365.91;1704737;82;21174;-80
2021/11/22 00:27:57;;;;;;;41.63;29.37;;;;;;;5.14;100.00;100372.20;1716183;83;21102;-79
2021/11/22 00:30:29;;;;;;;39.03;28.90;;;;;;;5.19;100.00;100383.08;1666426;84;21010;-79
2021/11/22 00:33:00;;;;;;;41.70;31.48;;;;;;;5.24;100.00;100384.12;1711083;83;21002;-80
2021/11/22 00:35:36;;;;;;;43.73;31.30;;;;;;;5.29;100.00;100379.55;1654935;83;21059;-78
2021/11/22 00:38:11;;;;;;;42.17;30.40;;;;;;;5.34;100.00;100373.17;1695018;83;21154;-80
2021/11/22 00:40:38;;;;;;;44.42;31.90;;;;;;;5.36;100.00;100367.95;1693954;84;21619;-79
2021/11/22 00:43:06;;;;;;;46.65;33.20;;;;;;;5.40;100.00;100371.18;1693782;84;21135;-79
2021/11/22 00:45:33;;;;;;;49.08;33.18;;;;;;;5.40;100.00;100376.34;1694178;84;21301;-79
2021/11/22 00:48:04;;;;;;;50.65;34.88;;;;;;;5.43;100.00;100382.61;1694191;84;21092;-79
2021/11/22 00:50:34;;;;;;;44.17;32.50;;;;;;;5.46;100.00;100391.48;1694498;84;21579;-78
2021/11/22 00:53:05;;;;;;;45.83;32.30;;;;;;;5.49;100.00;100392.58;1694071;84;28262;-80
2021/11/22 00:55:32;;;;;;;48.85;32.15;;;;;;;5.55;100.00;100396.13;1664114;84;21568;-79
2021/11/22 00:58:00;;;;;;;51.05;32.50;;;;;;;5.58;100.00;100376.55;1663665;84;21619;-79
2021/11/22 01:00:27;;;;;;;46.98;31.85;;;;;;;5.58;100.00;100379.61;1695772;83;21111;-80
2021/11/22 01:02:55;;;;;;;43.33;30.55;;;;;;;5.55;100.00;100379.34;1687340;84;21061;-79
2021/11/22 01:05:22;;;;;;;46.55;32.28;;;;;;;5.49;100.00;100374.06;1693899;84;21069;-78
2021/11/22 01:07:50;;;;;;;49.95;32.17;;;;;;;5.54;100.00;100375.09;1694019;84;21058;-78
2021/11/22 01:10:18;;;;;;;43.50;30.85;;;;;;;5.57;100.00;100380.05;1694138;84;21551;-79
2021/11/22 01:12:46;;;;;;;44.27;30.27;;;;;;;5.54;100.00;100385.42;1694323;84;21729;-79
2021/11/22 01:15:19;;;;;;;43.98;29.80;;;;;;;5.49;100.00;100377.08;1691385;84;21062;-80
2021/11/22 01:17:48;;;;;;;;;;;;;;;5.46;100.00;100380.68;1696193;84;21077;-79
2021/11/22 01:20:20;;;;;;;37.25;27.40;;;;;;;5.41;100.00;100380.59;1694130;84;20439;-80
2021/11/22 01:22:48;;;;;;;45.08;29.30;;;;;;;5.38;100.00;100381.58;1692995;84;21567;-79
2021/11/22 01:25:15;;;;;;;46.45;30.25;;;;;;;5.35;100.00;100380.48;1693351;84;21116;-79
2021/11/22 01:27:42;;;;;;;47.08;28.83;;;;;;;5.32;100.00;100385.36;1693968;84;21165;-78
2021/11/22 01:30:11;;;;;;;43.78;29.80;;;;;;;5.30;100.00;100384.61;1694184;84;21070;-78
2021/11/22 01:32:41;;;;;;;46.02;30.88;;;;;;;5.35;100.00;100389.52;1693528;84;21042;-78
2021/11/22 01:35:09;;;;;;;45.85;30.00;;;;;;;5.35;100.00;100385.17;1693741;84;21124;-78
2021/11/22 01:37:37;;;;;;;44.35;29.00;;;;;;;5.23;100.00;100385.87;1694191;84;21765;-82
2021/11/22 01:40:07;;;;;;;48.85;30.35;;;;;;;5.12;100.00;100376.16;1693895;84;21685;-81
2021/11/22 01:42:37;;;;;;;44.30;28.17;;;;;;;5.04;100.00;100380.45;1694055;84;21073;-78
2021/11/22 01:45:07;;;;;;;44.50;28.55;;;;;;;5.05;100.00;100393.73;1694265;84;21563;-77
2021/11/22 01:47:34;;;;;;;41.13;28.23;;;;;;;5.08;100.00;100390.61;1694042;84;21072;-79
2021/11/22 01:50:05;;;;;;;44.55;28.50;;;;;;;5.07;100.00;100393.64;1687904;84;21090;-78
2021/11/22 01:52:32;;;;;;;45.50;28.65;;;;;;;5.07;100.00;100394.92;1694391;84;21170;-78
2021/11/22 01:54:59;;;;;;;71.37;30.70;;;;;;;5.09;100.00;100406.00;1687448;84;21647;-78
2021/11/22 01:57:26;;;;;;;57.13;30.05;;;;;;;5.16;100.00;100400.88;1687182;84;21542;-79
2021/11/22 01:59:54;;;;;;;47.10;31.35;;;;;;;5.32;100.00;100404.73;1703330;83;21084;-77
2021/11/22 02:02:21;;;;;;;48.65;30.12;;;;;;;5.45;100.00;100400.14;1706606;84;21043;-78
2021/11/22 02:04:50;;;;;;;47.53;30.43;;;;;;;5.53;100.00;100408.29;1706194;84;21169;-77
2021/11/22 02:07:17;;;;;;;49.42;30.95;;;;;;;5.56;100.00;100402.95;1706267;84;21047;-78
2021/11/22 02:09:44;;;;;;;47.05;31.17;;;;;;;5.56;100.00;100394.36;1706599;84;21003;-78
2021/11/22 02:12:12;;;;;;;53.78;31.52;;;;;;;5.52;100.00;100385.96;1705901;84;21446;-78
2021/11/22 02:14:39;;;;;;;49.33;30.35;;;;;;;5.47;100.00;100386.22;1705908;84;21113;-77
2021/11/22 02:17:08;;;;;;;46.73;31.75;;;;;;;5.47;100.00;100391.39;1706428;84;21796;-80
2021/11/22 02:19:39;;;;;;;44.80;30.20;;;;;;;5.43;100.00;100395.08;1706354;84;21042;-77
2021/11/22 02:22:08;;;;;;;52.25;32.50;;;;;;;5.42;100.00;100389.98;1699109;83;21543;-80
2021/11/22 02:24:36;;;;;;;53.20;31.93;;;;;;;5.37;100.00;100388.51;1693496;83;21059;-78
2021/11/22 02:27:04;;;;;;;44.33;31.50;;;;;;;5.35;100.00;100387.75;1674938;83;21070;-78
2021/11/22 02:29:31;;;;;;;49.77;31.85;;;;;;;5.36;100.00;100395.06;1723187;83;21167;-79
2021/11/22 02:31:58;;;;;;;46.80;32.25;;;;;;;5.37;100.00;100398.84;1721503;83;21051;-79
2021/11/22 02:34:26;;;;;;;47.30;32.65;;;;;;;5.37;100.00;100396.25;1719182;83;21093;-79
2021/11/22 02:36:53;;;;;;;49.30;32.38;;;;;;;5.37;100.00;100402.70;1719815;83;21050;-79
2021/11/22 02:39:21;;;;;;;47.17;32.20;;;;;;;5.37;100.00;100405.29;1719190;83;21161;-79
2021/11/22 02:41:48;;;;;;;49.25;33.80;;;;;;;5.36;100.00;100398.94;1719658;83;21501;-79
2021/11/22 02:44:17;;;;;;;48.65;32.35;;;;;;;5.32;100.00;100412.48;1719773;83;21057;-80
2021/11/22 02:46:44;;;;;;;46.20;32.05;;;;;;;5.27;100.00;100410.59;1698823;83;21090;-79
2021/11/22 02:49:11;;;;;;;46.25;32.60;;;;;;;5.26;100.00;100414.09;1670022;84;21006;-79
2021/11/22 02:51:40;;;;;;;46.75;32.53;;;;;;;5.25;100.00;100417.58;1698476;84;21042;-79
2021/11/22 02:54:07;;;;;;;48.42;32.75;;;;;;;5.26;100.00;100426.18;1698315;84;21211;-78
2021/11/22 02:56:35;;;;;;;53.10;33.73;;;;;;;5.18;100.00;100422.72;1697919;84;21594;-78
2021/11/22 02:59:07;;;;;;;52.27;34.43;;;;;;;5.07;100.00;100427.66;1669929;84;21062;-78
2021/11/22 03:01:34;;;;;;;47.65;32.85;;;;;;;4.95;100.00;100427.41;1698622;84;21047;-79
2021/11/22 03:04:01;;;;;;;49.15;33.92;;;;;;;4.83;100.00;100428.09;1698419;84;21105;-78
2021/11/22 03:06:29;;;;;;;50.95;32.48;;;;;;;4.74;100.00;100435.84;1670188;84;22248;-77
2021/11/22 03:08:56;;;;;;;53.25;34.60;;;;;;;4.65;100.00;100441.48;1697896;84;21068;-79
2021/11/22 03:11:25;;;;;;;50.75;34.05;;;;;;;4.61;100.00;100442.58;1697778;84;21101;-80
2021/11/22 03:13:54;;;;;;;47.85;32.35;;;;;;;4.55;100.00;100439.86;1698091;84;21041;-80
2021/11/22 03:16:21;;;;;;;53.38;33.73;;;;;;;4.51;100.00;100447.39;1698474;84;21797;-80
2021/11/22 03:18:49;;;;;;;49.13;32.80;;;;;;;4.45;100.00;100440.81;1693869;84;21152;-78
2021/11/22 03:21:16;;;;;;;52.80;34.20;;;;;;;4.38;100.00;100441.58;1698333;84;21859;-78
2021/11/22 03:23:43;;;;;;;49.13;32.20;;;;;;;4.36;100.00;100438.70;1698091;84;21066;-79
2021/11/22 03:26:11;;;;;;;48.87;33.00;;;;;;;4.33;100.00;100439.70;1698387;84;21049;-79
2021/11/22 03:28:38;;;;;;;54.50;34.40;;;;;;;4.32;100.00;100440.61;1698330;84;21034;-77
2021/11/22 03:31:05;;;;;;;52.62;33.65;;;;;;;4.29;100.00;100445.09;1648017;84;21602;-79
2021/11/22 03:33:33;;;;;;;47.15;29.67;;;;;;;4.25;100.00;100444.42;1717854;83;21081;-79
2021/11/22 03:36:00;;;;;;;51.28;33.10;;;;;;;4.25;100.00;100440.55;1719632;83;21022;-79
2021/11/22 03:38:30;;;;;;;46.98;31.70;;;;;;;4.28;100.00;100446.00;1719083;83;21101;-80
2021/11/22 03:40:57;;;;;;;49.93;31.93;;;;;;;4.30;100.00;100446.30;1715604;83;21598;-79
2021/11/22 03:45:55;;;;;;;40.58;27.60;;;;;;;4.44;100.00;100450.74;1719714;83;21027;-78
2021/11/22 03:48:23;;;;;;;48.87;31.52;;;;;;;4.53;100.00;100447.69;1717553;83;21020;-79
2021/11/22 03:50:50;;;;;;;48.68;32.58;;;;;;;4.57;100.00;100447.89;1719492;83;21109;-80
2021/11/22 03:53:17;;;;;;;45.12;30.75;;;;;;;4.53;100.00;100446.84;1719573;83;21117;-79
2021/11/22 03:55:44;;;;;;;51.28;28.85;;;;;;;4.45;100.00;100448.55;1719648;83;21937;-78
2021/11/22 03:58:11;;;;;;;46.28;31.25;;;;;;;4.47;100.00;100453.61;1719401;83;21011;-79
2021/11/22 04:00:39;;;;;;;44.45;29.75;;;;;;;4.53;100.00;100454.57;1719618;83;21030;-77
2021/11/22 04:03:06;;;;;;;44.03;30.50;;;;;;;4.64;100.00;100456.61;1719386;83;21107;-78
2021/11/22 04:05:34;;;;;;;45.12;31.73;;;;;;;4.79;100.00;100458.38;1719591;83;21574;-79
2021/11/22 04:08:01;;;;;;;45.73;32.23;;;;;;;4.94;100.00;100461.05;1720085;83;21186;-80
2021/11/22 04:10:28;;;;;;;41.50;29.05;;;;;;;5.05;100.00;100457.41;1719630;83;21528;-79
2021/11/22 04:12:55;;;;;;;46.90;31.65;;;;;;;5.12;100.00;100465.66;1719621;83;21117;-79
2021/11/22 04:15:22;;;;;;;43.92;30.40;;;;;;;5.19;100.00;100466.98;1704966;83;21610;-79
2021/11/22 04:17:50;;;;;;;48.02;31.77;;;;;;;5.25;100.00;100464.05;1699968;84;21038;-80
2021/11/22 04:20:17;;;;;;;48.23;31.73;;;;;;;5.32;100.00;100467.98;1699958;84;21796;-80
2021/11/22 04:22:44;;;;;;;187.25;37.95;;;;;;;5.33;100.00;100467.05;1708318;83;21055;-80
2021/11/22 04:25:12;;;;;;;76.37;33.50;;;;;;;5.39;100.00;100463.77;1719671;83;21519;-79
2021/11/22 04:27:40;;;;;;;73.10;34.10;;;;;;;5.49;100.00;100472.64;1694307;83;20995;-80
2021/11/22 04:30:10;;;;;;;59.63;32.35;;;;;;;5.54;100.00;100478.41;1693431;83;21096;-80
2021/11/22 04:32:38;;;;;;;52.63;31.20;;;;;;;5.52;100.00;100480.23;1707401;82;21085;-83
2021/11/22 04:35:08;;;;;;;52.45;34.48;;;;;;;5.51;100.00;100478.13;1715955;82;21101;-82
2021/11/22 04:37:35;;;;;;;45.33;30.55;;;;;;;5.45;100.00;100479.73;1697658;83;21623;-80
2021/11/22 04:40:06;;;;;;;51.35;32.38;;;;;;;5.33;100.00;100481.25;1688208;85;21054;-84
2021/11/22 04:42:34;;;;;;;61.28;33.30;;;;;;;5.28;100.00;100483.27;1688300;85;21059;-82
2021/11/22 04:45:01;;;;;;;68.80;35.48;;;;;;;5.29;100.00;100488.80;1688510;85;21164;-82
2021/11/22 04:47:29;;;;;;;75.32;40.08;;;;;;;5.34;100.00;100493.25;1688466;85;21081;-80
2021/11/22 04:49:56;;;;;;;61.53;37.40;;;;;;;5.51;100.00;100495.35;1688392;85;21547;-80
2021/11/22 04:52:23;;;;;;;56.92;35.05;;;;;;;5.60;100.00;100505.17;1688496;84;21062;-81
2021/11/22 04:54:50;;;;;;;53.60;33.15;;;;;;;5.52;100.00;100511.23;1699823;83;21161;-80
2021/11/22 04:57:18;;;;;;;58.98;34.38;;;;;;;5.45;100.00;100512.48;1703180;83;21148;-81
2021/11/22 04:59:45;;;;;;;57.27;34.63;;;;;;;5.37;100.00;100517.63;1715435;83;21085;-79
2021/11/22 05:02:29;;;;;;;60.70;37.40;;;;;;;5.31;100.00;100523.56;1696150;83;21575;-80
2021/11/22 05:04:57;;;;;;;55.55;32.98;;;;;;;5.23;100.00;100527.02;1698363;83;21133;-81
2021/11/22 05:07:25;;;;;;;62.23;34.33;;;;;;;5.16;100.00;100523.48;1689313;83;21073;-80
2021/11/22 05:09:52;;;;;;;64.07;36.20;;;;;;;5.29;100.00;100526.72;1688121;83;21128;-80
2021/11/22 05:12:21;;;;;;;62.95;35.08;;;;;;;5.44;100.00;100527.16;1689063;83;21101;-79
2021/11/22 05:14:49;;;;;;;58.85;36.05;;;;;;;5.52;100.00;100525.44;1682493;83;21135;-79
2021/11/22 05:17:20;;;;;;;54.60;35.23;;;;;;;5.52;100.00;100534.03;1689477;82;21069;-79
2021/11/22 05:19:47;;;;;;;;;;;;;;;5.48;100.00;100543.33;1710219;82;21021;-79
2021/11/22 05:22:18;;;;;;;55.45;35.15;;;;;;;5.45;100.00;100544.77;1703112;84;21157;-78
2021/11/22 05:24:57;;;;;;;55.40;33.88;;;;;;;5.36;100.00;100550.81;1694722;82;21116;-81
2021/11/22 05:27:29;;;;;;;62.33;35.45;;;;;;;5.34;100.00;100552.64;1729621;81;21015;-80
2021/11/22 05:29:56;;;;;;;57.27;36.80;;;;;;;5.34;100.00;100558.27;1712465;82;21100;-82
2021/11/22 05:32:24;;;;;;;59.33;35.30;;;;;;;5.32;100.00;100555.78;1691021;84;21101;-80
2021/11/22 05:34:54;;;;;;;68.02;36.55;;;;;;;5.33;100.00;100549.67;1694160;84;21152;-80
2021/11/22 05:37:22;;;;;;;60.70;36.77;;;;;;;5.33;100.00;100556.60;1663908;84;21635;-82
2021/11/22 05:39:49;;;;;;;68.28;39.13;;;;;;;5.38;100.00;100561.05;1664397;83;21014;-84
2021/11/22 05:42:17;;;;;;;68.85;39.27;;;;;;;5.41;100.00;100557.49;1699526;83;21033;-83
2021/11/22 05:44:45;;;;;;;61.88;38.50;;;;;;;5.39;100.00;100566.59;1715105;83;21093;-81
2021/11/22 05:47:13;;;;;;;63.38;38.63;;;;;;;5.37;100.00;100570.56;1722780;83;21851;-81
2021/11/22 05:49:41;;;;;;;68.17;39.53;;;;;;;5.39;100.00;100578.22;1723087;83;21022;-80
2021/11/22 05:52:11;;;;;;;64.12;39.00;;;;;;;5.41;100.00;100588.48;1723097;83;21022;-80
2021/11/22 05:54:52;;;;;;;69.77;38.85;;;;;;;5.40;100.00;100591.98;1723241;83;21030;-80
2021/11/22 05:57:18;;;;;;;64.82;39.00;;;;;;;5.37;100.00;100592.95;1688751;83;21065;-80
2021/11/22 05:59:46;;;;;;;66.05;38.60;;;;;;;5.37;100.00;100597.67;1692217;83;21095;-82
2021/11/22 06:02:13;;;;;;;69.35;40.23;;;;;;;5.39;100.00;100591.59;1721709;83;21117;-83
2021/11/22 06:04:42;;;;;;;68.45;38.83;;;;;;;5.40;100.00;100589.39;1694222;84;21044;-83
2021/11/22 06:07:09;;;;;;;64.07;38.48;;;;;;;5.40;100.00;100597.14;1693848;84;21020;-80
2021/11/22 06:09:36;;;;;;;62.70;40.05;;;;;;;5.43;100.00;100596.52;1694124;84;21047;-79
2021/11/22 06:12:05;;;;;;;66.00;38.67;;;;;;;5.49;100.00;100594.89;1694359;84;21157;-81
2021/11/22 06:14:32;;;;;;;65.35;39.00;;;;;;;5.57;100.00;100600.09;1694191;84;21111;-80
2021/11/22 06:17:01;;;;;;;64.22;39.92;;;;;;;5.64;100.00;100602.27;1694212;84;21122;-81
2021/11/22 06:19:28;;;;;;;68.52;43.70;;;;;;;5.72;100.00;100602.31;1693753;84;21039;-81
2021/11/22 06:21:55;;;;;;;68.57;42.85;;;;;;;5.77;100.00;100599.82;1685997;83;21038;-80
2021/11/22 06:24:23;;;;;;;64.42;40.92;;;;;;;5.80;100.00;100601.43;1723208;83;21174;-81
2021/11/22 06:26:53;;;;;;;63.83;42.43;;;;;;;5.84;100.00;100606.78;1715385;83;21042;-81
2021/11/22 06:29:21;;;;;;;72.72;44.45;;;;;;;5.89;100.00;100603.48;1659341;84;21050;-80
2021/11/22 06:31:48;;;;;;;82.22;45.90;;;;;;;5.94;100.00;100613.13;1694015;84;21068;-80
2021/11/22 06:34:15;;;;;;;74.15;44.08;;;;;;;6.00;100.00;100602.94;1704275;83;21109;-81
2021/11/22 06:36:43;;;;;;;85.03;43.63;;;;;;;6.07;100.00;100605.98;1715489;83;21092;-80
2021/11/22 06:39:10;;;;;;;66.22;40.88;;;;;;;6.16;100.00;100602.88;1723483;83;21582;-80
2021/11/22 06:41:37;;;;;;;67.50;41.50;;;;;;;6.25;100.00;100604.95;1723375;83;21038;-81
2021/11/22 06:44:05;;;;;;;60.92;39.92;;;;;;;6.32;100.00;100597.69;1723484;83;21073;-80
2021/11/22 06:46:32;;;;;;;83.60;41.63;;;;;;;6.39;100.00;100600.73;1692419;83;21052;-81
2021/11/22 06:48:59;;;;;;;65.87;42.40;;;;;;;6.47;100.00;100599.83;1692571;83;21570;-80
2021/11/22 06:51:27;;;;;;;67.00;40.78;;;;;;;6.54;100.00;100600.31;1723406;83;21054;-79
2021/11/22 06:53:54;;;;;;;71.55;43.00;;;;;;;6.57;100.00;100602.26;1714887;83;21037;-81
2021/11/22 06:56:22;;;;;;;71.05;44.03;;;;;;;6.65;100.00;100602.27;1723482;83;21556;-79
2021/11/22 06:58:49;;;;;;;76.60;44.23;;;;;;;6.69;100.00;100597.30;1704670;83;21132;-79
2021/11/22 07:01:16;;;;;;;70.20;44.23;;;;;;;6.74;100.00;100601.25;1694421;84;21216;-78
2021/11/22 07:03:43;;;;;;;75.80;43.78;;;;;;;6.78;100.00;100603.20;1694181;84;21061;-80
2021/11/22 07:06:10;;;;;;;68.20;45.05;;;;;;;6.83;100.00;100606.81;1687898;84;21061;-79
2021/11/22 07:08:37;;;;;;;78.65;44.73;;;;;;;6.89;100.00;100603.40;1694624;84;21049;-79
2021/11/22 07:11:05;;;;;;;75.65;44.08;;;;;;;6.95;100.00;100606.91;1690069;83;21058;-80
2021/11/22 07:13:34;;;;;;;79.25;47.05;;;;;;;7.03;100.00;100603.02;1694246;84;21102;-82
2021/11/22 07:16:01;;;;;;;75.17;45.20;;;;;;;7.05;100.00;100609.77;1694318;84;21584;-81
2021/11/22 07:18:29;;;;;;;72.08;44.18;;;;;;;7.13;100.00;100614.98;1694388;84;21113;-80
2021/11/22 07:20:57;;;;;;;76.75;44.42;;;;;;;7.18;100.00;100620.22;1694355;84;21535;-80
2021/11/22 07:23:25;;;;;;;86.50;48.75;;;;;;;7.25;100.00;100617.63;1694467;84;21488;-82
2021/11/22 07:25:56;;;;;;;75.45;46.48;;;;;;;7.29;100.00;100614.38;1694195;84;21934;-82
2021/11/22 07:28:25;;;;;;;80.22;48.85;;;;;;;7.29;100.00;100613.56;1694320;84;21113;-81
2021/11/22 07:30:52;;;;;;;76.00;46.25;;;;;;;7.29;100.00;100618.73;1696529;83;21007;-80
2021/11/22 07:33:20;;;;;;;74.70;46.35;;;;;;;7.26;100.00;100612.81;1694273;84;21062;-83
2021/11/22 07:35:48;;;;;;;67.42;43.33;;;;;;;7.31;100.00;100615.60;1700059;83;21629;-82
2021/11/22 07:38:16;;;;;;;76.67;48.28;;;;;;;7.36;100.00;100616.98;1699559;83;21093;-83
2021/11/22 07:40:43;;;;;;;68.00;46.00;;;;;;;7.34;100.00;100619.28;1694203;84;21066;-82
2021/11/22 07:43:10;;;;;;;138.90;50.85;;;;;;;7.32;100.00;100615.97;1673872;84;21129;-81
2021/11/22 07:45:38;;;;;;;102.85;49.23;;;;;;;7.34;100.00;100609.77;1694061;83;21011;-81
2021/11/22 07:48:05;;;;;;;84.10;46.90;;;;;;;7.46;100.00;100615.10;1694294;83;21077;-81
2021/11/22 07:50:32;;;;;;;119.42;57.38;;;;;;;7.56;100.00;100621.38;1680205;83;21149;-84
2021/11/22 07:53:00;;;;;;;183.37;77.65;;;;;;;7.64;100.00;100621.73;1723063;83;21069;-84
2021/11/22 07:55:27;;;;;;;582.75;245.20;;;;;;;7.71;100.00;100622.19;1697612;83;21081;-83
2021/11/22 07:57:55;;;;;;;376.58;151.57;;;;;;;7.79;100.00;100625.13;1697915;83;21531;-83
2021/11/22 08:00:25;;;;;;;271.48;124.40;;;;;;;7.84;100.00;100624.36;1696167;83;21018;-82
2021/11/22 08:02:53;;;;;;;230.57;100.45;;;;;;;7.90;100.00;100629.63;1694415;84;21079;-82
2021/11/22 08:05:23;;;;;;;143.50;71.17;;;;;;;7.93;100.00;100623.41;1696442;83;21022;-83
2021/11/22 08:07:54;;;;;;;113.88;62.48;;;;;;;8.01;100.00;100615.50;1702311;83;21160;-85
2021/11/22 08:12:56;;;;;;;95.12;53.80;;;;;;;8.14;100.00;100622.02;1718473;83;22012;-83
2021/11/22 08:15:26;;;;;;;85.45;52.30;;;;;;;8.18;100.00;100622.66;1692852;84;21173;-81
2021/11/22 08:17:58;;;;;;;181.28;57.90;;;;;;;8.23;100.00;100614.13;1693143;84;21488;-80
2021/11/22 08:20:26;;;;;;;305.45;128.07;;;;;;;8.27;100.00;100619.95;1699527;83;21551;-81
2021/11/22 08:22:53;;;;;;;141.37;69.47;;;;;;;8.30;100.00;100626.21;1697278;83;21046;-83
2021/11/22 08:25:25;;;;;;;125.05;60.60;;;;;;;8.34;100.00;100611.64;1695195;84;21123;-81
2021/11/22 08:27:55;;;;;;;98.90;55.50;;;;;;;8.37;100.00;100612.75;1674252;84;21163;-80
2021/11/22 08:30:26;;;;;;;98.67;53.08;;;;;;;8.40;100.00;100615.61;1706198;83;21765;-82
2021/11/22 08:32:55;;;;;;;;;;;;;;;8.38;100.00;100614.87;1697855;83;21116;-82
2021/11/22 08:35:23;;;;;;;103.97;50.88;;;;;;;8.40;100.00;100620.80;1694104;84;20482;-83
2021/11/22 08:37:50;;;;;;;89.05;48.87;;;;;;;8.48;100.00;100617.26;1694031;84;21014;-82
2021/11/22 08:40:21;;;;;;;96.92;52.20;;;;;;;8.55;100.00;100616.39;1694185;84;21161;-81
2021/11/22 08:42:51;;;;;;;91.60;49.07;;;;;;;8.60;100.00;100618.20;1690542;84;21023;-81
2021/11/22 08:45:19;;;;;;;151.33;62.33;;;;;;;8.65;100.00;100620.49;1696629;83;21128;-84
2021/11/22 08:47:46;;;;;;;290.27;124.35;;;;;;;8.65;100.00;100616.60;1664388;83;21702;-86
2021/11/22 08:50:14;;;;;;;209.18;93.12;;;;;;;8.67;100.00;100622.05;1695661;83;21125;-83
2021/11/22 08:52:44;;;;;;;122.98;64.67;;;;;;;8.67;100.00;100617.34;1694334;84;21165;-82
2021/11/22 08:55:14;;;;;;;104.00;57.58;;;;;;;8.66;100.00;100619.09;1694602;84;21017;-82
2021/11/22 08:57:42;;;;;;;190.43;109.72;;;;;;;8.63;100.00;100620.61;1694317;84;22194;-81
2021/11/22 09:00:17;;;;;;;180.97;94.60;;;;;;;8.60;100.00;100625.17;1694465;84;21095;-83
2021/11/22 09:02:45;;;;;;;226.52;82.88;;;;;;;8.59;100.00;100625.62;1694016;84;21022;-81
2021/11/22 09:05:13;;;;;;;135.75;63.23;;;;;;;8.58;100.00;100624.44;1694289;84;21570;-83
2021/11/22 09:07:42;;;;;;;123.97;56.85;;;;;;;8.53;100.00;100625.56;1694706;83;21018;-83
2021/11/22 09:10:09;;;;;;;125.10;54.95;;;;;;;8.48;100.00;100626.34;1664516;84;21983;-84
2021/11/22 09:12:36;;;;;;;103.97;54.40;;;;;;;8.44;100.00;100628.76;1705735;83;21622;-86
2021/11/22 09:15:05;;;;;;;112.35;52.90;;;;;;;8.43;100.00;100625.80;1727040;83;21037;-85
2021/11/22 09:17:32;;;;;;;105.32;51.80;;;;;;;8.42;100.00;100624.58;1723272;83;21151;-86
2021/11/22 09:19:59;;;;;;;113.15;52.67;;;;;;;8.44;100.00;100631.35;1723400;83;21066;-85
2021/11/22 09:22:26;;;;;;;109.75;53.05;;;;;;;8.43;100.00;100629.69;1723229;83;21011;-84
2021/11/22 09:24:55;;;;;;;96.97;49.58;;;;;;;8.43;100.00;100624.50;1723141;83;21496;-83
2021/11/22 09:27:22;;;;;;;107.32;50.17;;;;;;;8.46;100.00;100622.98;1722289;83;21065;-83
2021/11/22 09:29:49;;;;;;;103.00;53.42;;;;;;;8.47;100.00;100629.86;1686778;83;21054;-83
2021/11/22 09:32:16;;;;;;;88.50;50.10;;;;;;;8.49;100.00;100626.71;1680802;84;21563;-82
2021/11/22 09:34:43;;;;;;;83.65;49.30;;;;;;;8.51;100.00;100627.45;1692208;84;21058;-90
2021/11/22 09:37:10;;;;;;;95.85;52.95;;;;;;;8.57;100.00;100628.81;1704595;83;21078;-82
2021/11/22 09:39:38;;;;;;;91.85;50.23;;;;;;;8.61;100.00;100624.24;1648610;85;21060;-82
2021/11/22 09:42:05;;;;;;;82.70;51.92;;;;;;;8.66;100.00;100628.65;1686171;83;21181;-84
2021/11/22 09:44:33;;;;;;;82.55;51.08;;;;;;;8.68;100.00;100626.80;1659612;86;20994;-84
2021/11/22 09:47:00;;;;;;;78.87;50.98;;;;;;;8.73;100.00;100629.08;1686226;83;21049;-84
2021/11/22 09:49:28;;;;;;;81.35;51.63;;;;;;;8.74;100.00;100635.46;1660631;84;21055;-83
2021/11/22 09:51:56;;;;;;;82.15;52.90;;;;;;;8.74;100.00;100635.46;1711213;82;21010;-83
2021/11/22 09:54:23;;;;;;;83.70;51.75;;;;;;;8.76;100.00;100637.94;1712656;82;21153;-82
2021/11/22 09:56:52;;;;;;;81.20;53.28;;;;;;;8.75;100.00;100634.98;1687549;83;21077;-83
2021/11/22 09:59:22;;;;;;;72.95;49.55;;;;;;;8.72;100.00;100635.20;1687248;85;21466;-83
2021/11/22 10:01:57;;;;;;;83.42;52.55;;;;;;;8.71;100.00;100634.36;1714990;83;21052;-83
2021/11/22 10:04:32;;;;;;;79.22;51.58;;;;;;;8.72;100.00;100632.61;1683055;83;21728;-84
2021/11/22 10:07:04;;;;;;;80.25;49.93;;;;;;;8.74;100.00;100630.72;1714275;83;21135;-82
2021/11/22 10:09:36;;;;;;;90.87;53.38;;;;;;;8.78;100.00;100639.50;1684799;83;21094;-81
2021/11/22 10:12:08;;;;;;;77.12;50.33;;;;;;;8.81;100.00;100635.41;1709292;82;21028;-86
2021/11/22 10:14:55;;;;;;;90.10;53.52;;;;;;;8.87;100.00;100635.47;1686913;83;21083;-88
2021/11/22 10:17:32;;;;;;;88.30;52.03;;;;;;;8.90;100.00;100637.84;1715149;83;21676;-86
2021/11/22 10:20:11;;;;;;;87.02;52.65;;;;;;;8.97;100.00;100638.27;1695079;83;21171;-84
2021/11/22 10:23:01;;;;;;;79.45;50.55;;;;;;;9.00;100.00;100638.88;1687668;83;21067;-86
2021/11/22 10:25:37;;;;;;;77.87;49.00;;;;;;;9.03;100.00;100646.11;1706070;82;21060;-84
2021/11/22 10:28:25;;;;;;;88.67;53.00;;;;;;;9.04;100.00;100645.18;1704875;83;21049;-84
2021/11/22 10:30:58;;;;;;;81.63;51.30;;;;;;;9.06;100.00;100648.48;1700724;82;21170;-84
2021/11/22 10:33:30;;;;;;;81.63;49.23;;;;;;;9.04;100.00;100636.09;1709428;82;21165;-85
2021/11/22 10:36:01;;;;;;;81.95;49.73;;;;;;;9.05;100.00;100642.95;1680538;84;21074;-85
2021/11/22 10:38:38;;;;;;;144.45;57.98;;;;;;;9.07;100.00;100641.91;1666967;84;21010;-86
2021/11/22 10:41:14;;;;;;;155.82;57.05;;;;;;;9.08;100.00;100642.27;1644923;84;21500;-86
2021/11/22 10:43:52;;;;;;;127.80;56.77;;;;;;;9.10;100.00;100642.97;1694884;84;21622;-84
2021/11/22 10:46:45;;;;;;;127.53;55.00;;;;;;;9.17;100.00;100644.69;1653238;84;21125;-85
2021/11/22 10:49:28;;;;;;;95.00;55.25;;;;;;;9.18;100.00;100645.06;1656703;85;21061;-85
2021/11/22 10:51:50;;;;;;;96.02;54.27;;;;;;;9.21;100.00;100647.91;1689912;84;21069;-85
2021/11/22 10:54:20;;;;;;;89.87;52.13;;;;;;;9.24;100.00;100637.31;1699700;84;21037;-85
2021/11/22 10:56:52;;;;;;;85.38;51.85;;;;;;;9.25;100.00;100635.91;1699634;84;21093;-85
2021/11/22 10:59:23;;;;;;;79.75;50.25;;;;;;;9.25;100.00;100642.88;1698744;83;21911;-85
2021/11/22 11:01:53;;;;;;;84.58;50.45;;;;;;;9.28;100.00;100635.70;1671339;84;21140;-88
2021/11/22 11:04:34;;;;;;;79.40;50.37;;;;;;;9.27;100.00;100634.48;1699699;83;21104;-85
2021/11/22 11:07:09;;;;;;;89.07;51.73;;;;;;;9.26;100.00;100635.42;1700185;84;22285;-84
2021/11/22 11:09:41;;;;;;;76.97;49.98;;;;;;;9.24;100.00;100635.53;1693791;83;21062;-85
2021/11/22 11:12:25;;;;;;;83.35;50.30;;;;;;;9.23;100.00;100639.55;1714145;83;21053;-83
2021/11/22 11:14:56;;;;;;;80.62;50.65;;;;;;;9.18;100.00;100640.31;1660339;85;21598;-84
2021/11/22 11:17:32;;;;;;;;;;;;;;;9.12;100.00;100635.91;1687507;84;21069;-84
2021/11/22 11:20:14;;;;;;;68.97;45.38;;;;;;;9.08;100.00;100638.83;1685483;84;20218;-84
2021/11/22 11:22:42;;;;;;;78.07;49.38;;;;;;;9.06;100.00;100638.94;1690954;84;21065;-84